createdAt,value
2024-05-09T00:00:47.914Z,2.47
2024-05-09T00:03:16.804Z,2.17
2024-05-09T00:05:45.769Z,2.63
2024-05-09T00:08:14.564Z,2.50
2024-05-09T00:10:43.230Z,2.60
2024-05-09T00:13:12.329Z,2.33
2024-05-09T00:15:40.995Z,2.60
2024-05-09T00:18:10.074Z,2.40
2024-05-09T00:20:41.240Z,2.70
2024-05-09T00:23:12.304Z,2.13
2024-05-09T00:25:43.685Z,2.37
2024-05-09T00:28:13.112Z,2.17
2024-05-09T00:30:42.138Z,2.40
2024-05-09T00:33:11.657Z,2.30
2024-05-09T00:35:41.796Z,2.50
2024-05-09T00:38:11.741Z,2.40
2024-05-09T00:40:43.149Z,2.40
2024-05-09T00:43:14.545Z,2.80
2024-05-09T00:45:44.529Z,2.60
2024-05-09T00:48:16.180Z,2.27
2024-05-09T00:50:48.025Z,2.27
2024-05-09T00:53:17.806Z,2.97
2024-05-09T00:55:46.596Z,2.40
2024-05-09T00:58:17.156Z,2.40
2024-05-09T01:00:46.225Z,2.30
2024-05-09T01:03:14.954Z,2.30
2024-05-09T01:05:44.498Z,2.60
2024-05-09T01:08:13.433Z,2.37
2024-05-09T01:10:44.954Z,2.30
2024-05-09T01:13:14.883Z,2.30
2024-05-09T01:15:43.881Z,2.30
2024-05-09T01:18:13.777Z,2.50
2024-05-09T01:20:44.772Z,2.13
2024-05-09T01:23:16.139Z,2.57
2024-05-09T01:25:46.675Z,2.70
2024-05-09T01:28:16.612Z,2.60
2024-05-09T01:30:45.407Z,2.30
2024-05-09T01:33:14.242Z,2.33
2024-05-09T01:35:43.472Z,2.47
2024-05-09T01:38:13.979Z,2.20
2024-05-09T01:40:43.498Z,2.70
2024-05-09T01:43:12.433Z,2.67
2024-05-09T01:45:41.852Z,2.57
2024-05-09T01:48:11.462Z,2.90
2024-05-09T01:50:42.999Z,2.63
2024-05-09T01:53:15.783Z,2.83
2024-05-09T01:55:44.784Z,2.70
2024-05-09T01:58:13.634Z,3.03
2024-05-09T02:00:43.405Z,2.87
2024-05-09T02:03:16.426Z,3.00
2024-05-09T02:05:47.990Z,2.90
2024-05-09T02:08:19.308Z,2.90
2024-05-09T02:10:49.486Z,3.33
2024-05-09T02:13:18.725Z,3.10
2024-05-09T02:15:47.485Z,3.00
2024-05-09T02:18:16.292Z,2.70
2024-05-09T02:20:45.056Z,2.97
2024-05-09T02:23:14.136Z,3.17
2024-05-09T02:25:43.356Z,3.30
2024-05-09T02:28:12.034Z,3.23
2024-05-09T02:30:42.137Z,3.20
2024-05-09T02:33:13.738Z,3.10
2024-05-09T02:35:44.383Z,3.13
2024-05-09T02:38:13.657Z,3.20
2024-05-09T02:40:42.387Z,3.40
2024-05-09T02:43:13.402Z,3.20
2024-05-09T02:45:42.250Z,3.63
2024-05-09T02:48:14.445Z,4.00
2024-05-09T02:50:46.221Z,3.30
2024-05-09T02:53:15.157Z,4.07
2024-05-09T02:55:43.797Z,3.67
2024-05-09T02:58:12.490Z,3.83
2024-05-09T03:00:42.742Z,3.60
2024-05-09T03:03:15.829Z,3.50
2024-05-09T03:05:47.858Z,3.73
2024-05-09T03:08:16.686Z,3.93
2024-05-09T03:10:45.329Z,4.47
2024-05-09T03:13:16.019Z,3.80
2024-05-09T03:15:45.893Z,3.60
2024-05-09T03:18:15.853Z,3.40
2024-05-09T03:20:44.928Z,3.83
2024-05-09T03:23:13.890Z,3.60
2024-05-09T03:25:42.560Z,3.40
2024-05-09T03:28:11.982Z,3.80
2024-05-09T03:30:42.873Z,3.70
2024-05-09T03:33:18.675Z,3.60
2024-05-09T03:35:49.466Z,3.40
2024-05-09T03:38:18.445Z,3.57
2024-05-09T03:40:49.143Z,3.67
2024-05-09T03:43:19.100Z,3.73
2024-05-09T03:45:48.803Z,3.53
2024-05-09T03:48:17.656Z,3.37
2024-05-09T03:50:46.576Z,3.67
2024-05-09T03:53:15.893Z,3.37
2024-05-09T03:55:44.662Z,3.73
2024-05-09T03:58:14.751Z,4.20
2024-05-09T04:00:43.418Z,4.00
2024-05-09T04:03:13.226Z,3.87
2024-05-09T04:05:44.651Z,4.50
2024-05-09T04:08:13.495Z,3.73
2024-05-09T04:10:42.310Z,3.60
2024-05-09T04:13:11.475Z,3.60
2024-05-09T04:15:40.435Z,3.60
2024-05-09T04:18:09.293Z,3.40
2024-05-09T04:20:40.433Z,3.70
2024-05-09T04:23:13.980Z,3.30
2024-05-09T04:25:45.132Z,4.07
2024-05-09T04:28:14.672Z,3.63
2024-05-09T04:30:43.667Z,3.67
2024-05-09T04:33:14.181Z,3.70
2024-05-09T04:35:44.578Z,3.80
2024-05-09T04:38:14.850Z,3.67
2024-05-09T04:40:44.152Z,3.60
2024-05-09T04:43:17.535Z,3.50
2024-05-09T04:45:46.359Z,3.90
2024-05-09T04:48:16.793Z,3.53
2024-05-09T04:50:45.840Z,3.77
2024-05-09T04:53:17.725Z,4.27
2024-05-09T04:55:46.592Z,4.50
2024-05-09T04:58:15.276Z,3.63
2024-05-09T05:00:43.947Z,3.77
2024-05-09T05:03:15.503Z,3.60
2024-05-09T05:05:46.387Z,3.43
2024-05-09T05:08:16.756Z,3.80
2024-05-09T05:10:47.078Z,3.60
2024-05-09T05:13:18.185Z,3.93
2024-05-09T05:15:52.732Z,3.43
2024-05-09T05:18:22.191Z,3.23
2024-05-09T05:20:51.290Z,3.53
2024-05-09T05:23:21.200Z,3.23
2024-05-09T05:25:54.511Z,3.77
2024-05-09T05:28:23.549Z,4.10
2024-05-09T05:30:52.271Z,3.80
2024-05-09T05:33:23.091Z,3.60
2024-05-09T05:35:52.152Z,4.07
2024-05-09T05:38:24.835Z,3.60
2024-05-09T05:40:56.120Z,4.07
2024-05-09T05:43:24.820Z,3.60
2024-05-09T05:45:53.394Z,4.00
2024-05-09T05:48:22.168Z,4.00
2024-05-09T05:50:50.977Z,3.57
2024-05-09T05:53:19.734Z,3.37
2024-05-09T05:55:48.447Z,3.30
2024-05-09T05:58:17.099Z,3.70
2024-05-09T06:00:45.765Z,3.63
2024-05-09T06:03:14.818Z,3.77
2024-05-09T06:05:45.901Z,3.20
2024-05-09T06:08:14.880Z,3.60
2024-05-09T06:10:43.750Z,3.00
2024-05-09T06:13:15.885Z,3.20
2024-05-09T06:15:44.481Z,2.97
2024-05-09T06:18:14.354Z,3.17
2024-05-09T06:20:44.289Z,3.00
2024-05-09T06:23:13.653Z,2.90
2024-05-09T06:25:42.884Z,2.77
2024-05-09T06:28:11.933Z,2.67
2024-05-09T06:30:42.565Z,2.70
2024-05-09T06:33:14.569Z,3.00
2024-05-09T06:35:45.203Z,2.57
2024-05-09T06:38:14.206Z,2.57
2024-05-09T06:40:44.523Z,2.67
2024-05-09T06:43:16.417Z,2.50
2024-05-09T06:45:49.484Z,3.00
2024-05-09T06:48:20.439Z,2.50
2024-05-09T06:50:50.304Z,2.40
2024-05-09T06:53:21.524Z,2.27
2024-05-09T06:55:50.445Z,1.90
2024-05-09T06:58:19.144Z,1.87
2024-05-09T07:00:47.956Z,2.20
2024-05-09T07:03:18.492Z,2.33
2024-05-09T07:05:49.528Z,2.40
2024-05-09T07:08:19.297Z,2.00
2024-05-09T07:10:48.260Z,2.10
2024-05-09T07:13:17.306Z,2.10
2024-05-09T07:15:45.885Z,1.90
2024-05-09T07:18:17.698Z,2.00
2024-05-09T07:20:48.409Z,1.87
2024-05-09T07:23:17.724Z,1.90
2024-05-09T07:25:46.616Z,1.90
2024-05-09T07:28:16.740Z,1.73
2024-05-09T07:30:45.549Z,1.90
2024-05-09T07:33:22.784Z,1.80
2024-05-09T07:35:53.148Z,2.00
2024-05-09T07:38:22.017Z,1.43
2024-05-09T07:40:50.853Z,1.30
2024-05-09T07:43:19.571Z,1.17
2024-05-09T07:45:53.161Z,1.40
2024-05-09T07:52:39.288Z,1.33
2024-05-09T07:53:49.508Z,1.10
2024-05-09T07:56:23.148Z,1.17
2024-05-09T07:58:56.441Z,1.30
2024-05-09T08:01:26.780Z,0.90
2024-05-09T08:03:56.494Z,1.40
2024-05-09T08:06:25.774Z,1.20
2024-05-09T08:08:54.832Z,1.17
2024-05-09T08:11:24.294Z,1.80
2024-05-09T08:13:53.044Z,1.60
2024-05-09T08:16:21.905Z,1.40
2024-05-09T08:18:50.717Z,1.30
2024-05-09T08:21:19.816Z,1.60
2024-05-09T08:23:48.465Z,1.90
2024-05-09T08:26:17.090Z,1.67
2024-05-09T08:28:45.778Z,1.60
2024-05-09T08:31:14.567Z,1.40
2024-05-09T08:33:48.664Z,1.40
2024-05-09T08:36:17.899Z,1.70
2024-05-09T08:38:46.517Z,1.50
2024-05-09T08:41:16.281Z,1.70
2024-05-09T08:43:45.344Z,1.43
2024-05-09T08:46:14.596Z,1.57
2024-05-09T08:48:44.462Z,2.00
2024-05-09T08:51:14.359Z,1.70
2024-05-09T08:53:42.909Z,1.40
2024-05-09T08:56:13.039Z,1.40
2024-05-09T08:58:42.332Z,1.77
2024-05-09T09:01:11.779Z,1.40
2024-05-09T09:03:40.700Z,1.50
2024-05-09T09:06:18.398Z,1.53
2024-05-09T09:08:47.668Z,1.50
2024-05-09T09:11:16.313Z,1.53
2024-05-09T09:13:45.164Z,1.50
2024-05-09T09:16:14.411Z,1.40
2024-05-09T09:18:46.449Z,1.57
2024-05-09T09:21:18.413Z,1.80
2024-05-09T09:23:47.034Z,1.87
2024-05-09T09:26:18.955Z,1.53
2024-05-09T09:28:47.854Z,1.87
2024-05-09T09:31:20.260Z,2.10
2024-05-09T09:33:49.293Z,1.50
2024-05-09T09:36:18.720Z,1.20
2024-05-09T09:38:48.665Z,1.30
2024-05-09T09:41:20.426Z,1.97
2024-05-09T09:43:49.593Z,1.37
2024-05-09T09:46:19.748Z,1.37
2024-05-09T09:48:49.532Z,1.70
2024-05-09T09:51:18.168Z,1.53
2024-05-09T09:53:47.835Z,1.40
2024-05-09T09:56:18.248Z,1.37
2024-05-09T09:58:47.262Z,1.40
2024-05-09T10:01:15.944Z,1.40
2024-05-09T10:03:45.775Z,1.20
2024-05-09T10:06:15.426Z,1.43
2024-05-09T10:08:45.887Z,1.40
2024-05-09T10:11:14.540Z,1.33
2024-05-09T10:13:43.421Z,1.90
2024-05-09T10:16:12.541Z,1.60
2024-05-09T10:18:42.219Z,1.50
2024-05-09T10:21:21.108Z,1.57
2024-05-09T10:24:03.653Z,2.20
2024-05-09T10:26:34.232Z,1.80
2024-05-09T10:29:13.285Z,1.80
2024-05-09T10:31:46.474Z,1.33
2024-05-09T10:34:23.014Z,1.73
2024-05-09T10:36:55.859Z,1.70
2024-05-09T10:39:27.017Z,1.33
2024-05-09T10:41:55.649Z,1.40
2024-05-09T10:44:24.232Z,2.03
2024-05-09T10:46:54.992Z,1.47
2024-05-09T10:49:24.090Z,1.97
2024-05-09T10:51:53.407Z,2.10
2024-05-09T10:54:22.101Z,2.30
2024-05-09T10:56:58.033Z,1.70
2024-05-09T10:59:27.721Z,2.77
2024-05-09T11:01:56.370Z,1.90
2024-05-09T11:04:25.201Z,2.20
2024-05-09T11:06:53.994Z,2.50
2024-05-09T11:09:22.662Z,1.70
2024-05-09T11:11:51.364Z,1.87
2024-05-09T11:14:20.083Z,1.80
2024-05-09T11:16:49.030Z,1.60
2024-05-09T11:19:19.828Z,1.43
2024-05-09T11:21:52.817Z,2.13
2024-05-09T11:24:21.380Z,1.87
2024-05-09T11:26:50.033Z,1.87
2024-05-09T11:29:19.758Z,1.50
2024-05-09T11:31:48.961Z,2.20
2024-05-09T11:34:17.744Z,2.07
2024-05-09T11:36:46.429Z,2.00
2024-05-09T11:39:15.126Z,1.90
2024-05-09T11:41:43.756Z,1.80
2024-05-09T11:44:13.364Z,1.80
2024-05-09T11:46:41.990Z,1.57
2024-05-09T11:49:11.462Z,1.70
2024-05-09T11:51:40.251Z,1.70
2024-05-09T11:54:08.848Z,1.70
2024-05-09T11:56:37.514Z,1.50
2024-05-09T11:59:06.155Z,1.70
2024-05-09T12:01:34.826Z,1.90
2024-05-09T12:04:04.526Z,1.50
2024-05-09T12:06:33.379Z,1.90
2024-05-09T12:09:02.079Z,1.50
2024-05-09T12:11:30.824Z,1.60
2024-05-09T12:13:59.461Z,1.57
2024-05-09T12:16:28.385Z,1.50
2024-05-09T12:18:57.454Z,2.00
2024-05-09T12:21:26.108Z,1.93
2024-05-09T12:23:54.652Z,1.50
2024-05-09T12:26:23.221Z,2.00
2024-05-09T12:28:51.781Z,1.80
2024-05-09T12:31:20.441Z,2.13
2024-05-09T12:33:49.316Z,2.00
2024-05-09T12:36:17.970Z,1.90
2024-05-09T12:38:46.884Z,1.90
2024-05-09T12:41:15.415Z,1.67
2024-05-09T12:43:44.098Z,1.90
2024-05-09T12:46:12.734Z,2.00
2024-05-09T12:48:41.482Z,1.80
2024-05-09T12:51:10.119Z,1.90
2024-05-09T12:53:38.910Z,1.90
2024-05-09T12:56:09.498Z,1.80
2024-05-09T12:58:38.604Z,1.50
2024-05-09T13:01:07.322Z,1.60
2024-05-09T13:03:36.116Z,2.10
2024-05-09T13:06:04.888Z,1.93
2024-05-09T13:08:33.533Z,2.10
2024-05-09T13:11:02.258Z,1.93
2024-05-09T13:13:30.837Z,2.47
2024-05-09T13:15:59.479Z,2.23
2024-05-09T13:18:28.241Z,2.20
2024-05-09T13:20:56.878Z,2.00
2024-05-09T13:23:25.438Z,2.40
2024-05-09T13:25:53.972Z,1.90
2024-05-09T13:28:23.028Z,2.17
2024-05-09T13:30:51.736Z,2.00
2024-05-09T13:33:20.665Z,2.80
2024-05-09T13:35:50.977Z,2.00
2024-05-09T13:38:21.273Z,2.50
2024-05-09T13:40:50.796Z,2.40
2024-05-09T13:43:22.203Z,2.30
2024-05-09T13:45:52.334Z,2.33
2024-05-09T13:48:21.165Z,2.00
2024-05-09T13:50:49.843Z,2.07
2024-05-09T13:53:18.392Z,2.47
2024-05-09T13:55:47.061Z,2.07
2024-05-09T13:58:15.862Z,2.30
2024-05-09T14:00:48.838Z,2.47
2024-05-09T14:03:20.268Z,2.70
2024-05-09T14:05:51.373Z,2.40
2024-05-09T14:08:22.620Z,2.30
2024-05-09T14:10:52.582Z,2.17
2024-05-09T14:13:21.579Z,2.30
2024-05-09T14:15:50.487Z,2.20
2024-05-09T14:18:19.332Z,2.10
2024-05-09T14:20:47.947Z,2.23
2024-05-09T14:23:18.073Z,2.50
2024-05-09T14:25:50.079Z,2.67
2024-05-09T14:28:21.446Z,2.93
2024-05-09T14:30:50.176Z,3.87
2024-05-09T14:33:23.832Z,5.37
2024-05-09T14:35:55.567Z,2.70
2024-05-09T14:38:28.743Z,2.80
2024-05-09T14:40:57.323Z,2.50
2024-05-09T14:43:26.164Z,2.80
2024-05-09T14:45:56.133Z,2.80
2024-05-09T14:48:24.911Z,3.67
2024-05-09T14:50:53.521Z,3.37
2024-05-09T14:53:23.797Z,3.00
2024-05-09T14:55:52.470Z,3.40
2024-05-09T14:58:21.272Z,2.75
2024-05-09T15:00:51.356Z,2.83
2024-05-09T15:03:22.115Z,2.88
2024-05-09T15:05:52.044Z,2.97
2024-05-09T15:08:21.273Z,3.05
2024-05-09T15:10:50.759Z,2.50
2024-05-09T15:13:21.275Z,2.33
2024-05-09T15:15:50.245Z,2.30
2024-05-09T15:18:19.212Z,1.97
2024-05-09T15:20:48.720Z,2.20
2024-05-09T15:23:17.938Z,2.40
2024-05-09T15:25:46.583Z,2.50
2024-05-09T15:28:15.453Z,3.00
2024-05-09T15:30:46.487Z,1.90
2024-05-09T15:33:16.103Z,1.67
2024-05-09T15:35:47.028Z,1.60
2024-05-09T15:38:18.632Z,1.95
2024-05-09T15:40:47.602Z,2.58
2024-05-09T15:43:16.897Z,2.10
2024-05-09T15:45:45.769Z,1.63
2024-05-09T15:48:14.647Z,1.50
2024-05-09T15:50:43.718Z,1.27
2024-05-09T15:53:14.091Z,1.38
2024-05-09T15:55:43.443Z,1.40
2024-05-09T15:58:12.693Z,1.52
2024-05-09T16:00:44.315Z,1.40
2024-05-09T16:03:15.274Z,1.63
2024-05-09T16:05:48.270Z,1.77
2024-05-09T16:08:17.404Z,1.50
2024-05-09T16:10:46.991Z,1.45
2024-05-09T16:13:17.579Z,1.17
2024-05-09T16:15:47.217Z,1.10
2024-05-09T16:18:16.028Z,1.40
2024-05-09T16:20:46.468Z,1.13
2024-05-09T16:23:17.179Z,1.30
2024-05-09T16:25:48.209Z,1.20
2024-05-09T16:28:17.268Z,1.58
2024-05-09T16:30:46.072Z,1.95
2024-05-09T16:33:14.937Z,1.70
2024-05-09T16:35:43.602Z,1.70
2024-05-09T16:38:12.714Z,2.08
2024-05-09T16:40:41.771Z,1.60
2024-05-09T16:43:11.743Z,1.73
2024-05-09T16:45:43.750Z,1.63
2024-05-09T16:48:13.427Z,1.80
2024-05-09T16:50:42.118Z,1.45
2024-05-09T16:53:10.766Z,1.60
2024-05-09T16:55:39.422Z,1.90
2024-05-09T16:58:08.722Z,1.60
2024-05-09T17:00:42.015Z,1.57
2024-05-09T17:03:15.532Z,1.48
2024-05-09T17:05:49.223Z,1.60
2024-05-09T17:08:18.793Z,1.40
2024-05-09T17:10:51.033Z,1.50
2024-05-09T17:13:20.308Z,1.70
2024-05-09T17:15:52.366Z,2.10
2024-05-09T17:18:21.277Z,1.60
2024-05-09T17:20:51.679Z,1.77
2024-05-09T17:23:20.270Z,1.67
2024-05-09T17:25:48.852Z,1.43
2024-05-09T17:28:17.593Z,1.67
2024-05-09T17:30:46.291Z,1.67
2024-05-09T17:33:15.023Z,1.33
2024-05-09T17:35:46.179Z,1.60
2024-05-09T17:38:14.966Z,1.40
2024-05-09T17:40:43.578Z,1.70
2024-05-09T17:43:12.989Z,1.63
2024-05-09T17:45:42.366Z,1.27
2024-05-09T17:48:12.389Z,1.33
2024-05-09T17:50:42.019Z,1.60
2024-05-09T17:53:11.521Z,1.60
2024-05-09T17:55:41.128Z,1.77
2024-05-09T17:58:10.437Z,1.67
2024-05-09T18:00:41.808Z,1.93
2024-05-09T18:03:12.516Z,1.97
2024-05-09T18:05:43.301Z,1.90
2024-05-09T18:08:13.790Z,2.33
2024-05-09T18:10:42.873Z,2.40
2024-05-09T18:13:12.808Z,2.40
2024-05-09T18:15:42.172Z,2.37
2024-05-09T18:18:12.261Z,2.30
2024-05-09T18:20:44.702Z,2.30
2024-05-09T18:23:17.075Z,2.67
2024-05-09T18:25:47.875Z,2.73
2024-05-09T18:28:17.624Z,3.10
2024-05-09T18:30:46.669Z,3.13
2024-05-09T18:33:15.934Z,4.10
2024-05-09T18:35:45.714Z,2.90
2024-05-09T18:38:14.506Z,2.57
2024-05-09T18:40:45.108Z,2.87
2024-05-09T18:43:16.291Z,2.93
2024-05-09T18:45:45.520Z,3.20
2024-05-09T18:48:15.543Z,3.83
2024-05-09T18:50:44.151Z,4.57
2024-05-09T18:53:13.756Z,4.30
2024-05-09T18:55:45.537Z,4.57
2024-05-09T18:58:14.182Z,3.83
2024-05-09T19:00:45.405Z,3.97
2024-05-09T19:03:16.793Z,4.13
2024-05-09T19:05:46.384Z,3.83
2024-05-09T19:08:15.816Z,3.87
2024-05-09T19:10:46.122Z,3.87
2024-05-09T19:13:15.556Z,3.30
2024-05-09T19:15:44.818Z,3.57
2024-05-09T19:18:14.830Z,2.90
2024-05-09T19:20:44.295Z,2.80
2024-05-09T19:23:13.268Z,2.40
2024-05-09T19:25:42.076Z,2.60
2024-05-09T19:28:10.720Z,2.50
2024-05-09T19:30:42.078Z,2.70
2024-05-09T19:33:13.567Z,2.80
2024-05-09T19:35:43.939Z,3.13
2024-05-09T19:38:13.021Z,4.37
2024-05-09T19:40:41.776Z,5.63
2024-05-09T19:43:11.316Z,3.33
2024-05-09T19:45:40.145Z,3.30
2024-05-09T19:48:09.254Z,3.60
2024-05-09T19:50:43.053Z,3.70
2024-05-09T19:53:14.118Z,3.00
2024-05-09T19:55:43.336Z,2.77
2024-05-09T19:58:13.040Z,2.50
2024-05-09T20:00:43.725Z,3.00
2024-05-09T20:03:15.302Z,2.87
2024-05-09T20:05:47.141Z,3.20
2024-05-09T20:08:16.282Z,3.43
2024-05-09T20:10:45.172Z,3.50
2024-05-09T20:13:15.378Z,2.70
2024-05-09T20:15:44.135Z,2.60
2024-05-09T20:18:13.358Z,2.70
2024-05-09T20:20:44.069Z,2.80
2024-05-09T20:23:14.455Z,2.60
2024-05-09T20:25:44.264Z,2.77
2024-05-09T20:28:13.276Z,2.63
2024-05-09T20:30:42.078Z,3.00
2024-05-09T20:33:12.146Z,2.83
2024-05-09T20:35:41.482Z,3.07
2024-05-09T20:38:10.026Z,3.00
2024-05-09T20:40:39.785Z,3.70
2024-05-09T20:43:12.153Z,3.27
2024-05-09T20:45:41.137Z,3.43
2024-05-09T20:48:10.373Z,3.60
2024-05-09T20:50:41.740Z,3.87
2024-05-09T20:53:13.850Z,6.40
2024-05-09T20:55:44.886Z,6.50
2024-05-09T20:58:14.203Z,5.90
2024-05-09T21:00:45.811Z,3.97
2024-05-09T21:03:17.333Z,4.97
2024-05-09T21:05:47.269Z,6.53
2024-05-09T21:08:16.559Z,20.57
2024-05-09T21:10:45.280Z,15.57
2024-05-09T21:13:14.009Z,13.57
2024-05-09T21:15:42.750Z,11.10
2024-05-09T21:18:11.535Z,6.07
2024-05-09T21:20:40.781Z,5.80
2024-05-09T21:23:09.702Z,5.57
2024-05-09T21:25:38.395Z,5.73
2024-05-09T21:28:07.331Z,5.47
2024-05-09T21:30:41.583Z,6.40
2024-05-09T21:33:14.105Z,5.33
2024-05-09T21:35:45.058Z,5.70
2024-05-09T21:38:14.942Z,5.47
2024-05-09T21:40:46.997Z,5.97
2024-05-09T21:43:15.777Z,5.90
2024-05-09T21:45:45.019Z,6.17
2024-05-09T21:48:14.838Z,6.40
2024-05-09T21:50:43.501Z,7.20
2024-05-09T21:53:13.511Z,6.27
2024-05-09T21:55:43.324Z,5.97
2024-05-09T21:58:14.883Z,5.97
2024-05-09T22:00:46.503Z,5.37
2024-05-09T22:03:15.681Z,5.50
2024-05-09T22:05:45.270Z,5.97
2024-05-09T22:08:14.158Z,6.30
2024-05-09T22:10:46.145Z,5.73
2024-05-09T22:13:17.055Z,5.90
2024-05-09T22:15:45.807Z,5.17
2024-05-09T22:18:14.936Z,5.30
2024-05-09T22:20:45.782Z,5.37
2024-05-09T22:23:30.569Z,5.80
2024-05-09T22:25:59.212Z,5.17
2024-05-09T22:28:27.835Z,5.23
2024-05-09T22:30:56.542Z,4.90
2024-05-09T22:33:25.306Z,4.67
2024-05-09T22:35:53.962Z,4.63
2024-05-09T22:38:22.588Z,5.40
2024-05-09T22:40:52.380Z,5.03
2024-05-09T22:43:23.879Z,5.43
2024-05-09T22:45:56.910Z,5.63
2024-05-09T22:48:26.419Z,6.00
2024-05-09T22:50:55.751Z,6.23
2024-05-09T22:53:26.720Z,5.47
2024-05-09T22:55:55.366Z,7.10
2024-05-09T22:58:24.590Z,7.00
2024-05-09T23:00:53.521Z,6.70
2024-05-09T23:03:23.137Z,7.30
2024-05-09T23:05:53.514Z,5.90
2024-05-09T23:08:22.294Z,5.93
2024-05-09T23:10:51.259Z,5.57
2024-05-09T23:13:20.390Z,5.20
2024-05-09T23:15:49.731Z,5.27
2024-05-09T23:18:18.496Z,6.73
2024-05-09T23:20:47.155Z,7.07
2024-05-09T23:23:15.763Z,6.90
2024-05-09T23:25:44.942Z,7.57
2024-05-09T23:28:13.964Z,6.60
2024-05-09T23:30:42.859Z,5.50
2024-05-09T23:33:13.619Z,5.43
2024-05-09T23:35:44.537Z,5.80
2024-05-09T23:38:13.848Z,7.40
2024-05-09T23:40:43.234Z,6.20
2024-05-09T23:43:13.231Z,5.93
2024-05-09T23:45:43.309Z,6.00
2024-05-09T23:48:12.268Z,6.17
2024-05-09T23:50:41.494Z,35.57
2024-05-09T23:53:11.148Z,38.40
2024-05-09T23:55:40.378Z,19.97
2024-05-09T23:58:09.663Z,25.03
